Time;durP1;ratioP1;P1;durP2;ratioP2;P2;SDS_P1;SDS_P2;PMS_P1;PMS_P2;Temp;Humidity;BMP_temperature;BMP_pressure;BME280_temperature;BME280_humidity;BME280_pressure;Samples;Min_cycle;Max_cycle;Signal;HPM_P1;HPM_P2
2022/05/31 00:59:20;;;;;;;;;;;17.30;69.60;;;;;;4920014;29;19967;-65
2022/05/31 01:01:47;;;;;;;;;;;17.40;69.70;;;;;;4920101;29;20010;-59
2022/05/31 01:04:14;;;;;;;;;;;17.40;69.90;;;;;;4919977;29;19958;-62
2022/05/31 01:06:39;;;;;;;;;;;17.40;69.80;;;;;;4919926;29;20376;-67
2022/05/31 01:09:06;;;;;;;;;;;17.40;70.00;;;;;;4920086;29;19919;-66
2022/05/31 01:11:41;;;;;;;;;;;17.40;70.00;;;;;;4920237;29;19915;-58
2022/05/31 01:14:07;;;;;;;;;;;17.40;70.30;;;;;;4919807;29;19915;-58
2022/05/31 01:16:33;;;;;;;;;;;17.40;70.50;;;;;;4919472;29;20439;-65
2022/05/31 01:18:59;;;;;;;;;;;17.50;70.30;;;;;;4919904;29;19911;-61
2022/05/31 01:21:25;;;;;;;;;;;17.50;70.10;;;;;;4919512;29;19958;-67
2022/05/31 01:24:06;;;;;;;;;;;17.50;70.40;;;;;;4919981;29;19911;-57
2022/05/31 01:26:50;;;;;;;;;;;17.50;70.30;;;;;;4919412;29;20375;-60
2022/05/31 01:29:19;;;;;;;;;;;17.40;70.50;;;;;;4919618;29;19940;-63
2022/05/31 01:31:45;;;;;;;;;;;17.50;70.40;;;;;;4919443;29;19958;-57
2022/05/31 01:34:15;;;;;;;;;;;17.40;70.60;;;;;;4919239;29;20273;-57
2022/05/31 01:36:46;;;;;;;;;;;17.50;70.50;;;;;;4919242;29;19912;-64
2022/05/31 01:39:15;;;;;;;;;;;17.50;70.50;;;;;;4919135;29;19944;-64
2022/05/31 01:41:53;;;;;;;;;;;17.50;70.10;;;;;;4919954;29;20310;-63
2022/05/31 01:44:20;;;;;;;;;;;17.60;69.60;;;;;;4919200;29;19943;-62
2022/05/31 01:46:46;;;;;;;;;;;17.60;69.50;;;;;;4917802;29;19945;-64
2022/05/31 01:49:13;;;;;;;;;;;17.60;69.50;;;;;;4918980;29;19958;-63
2022/05/31 01:51:40;;;;;;;;;;;17.60;69.90;;;;;;4919005;29;19907;-60
2022/05/31 01:54:07;;;;;;;;;;;17.50;69.50;;;;;;4919259;29;20009;-60
2022/05/31 01:56:33;;;;;;;;;;;17.50;69.20;;;;;;4919152;29;20001;-59
2022/05/31 01:59:00;;;;;;;;;;;17.50;69.50;;;;;;4918336;29;19915;-61
2022/05/31 02:01:26;;;;;;;;;;;17.50;69.50;;;;;;4918257;29;19967;-61
2022/05/31 02:03:51;;;;;;;;;;;17.60;69.20;;;;;;4918737;29;19915;-59
2022/05/31 02:06:28;;;;;;;;;;;17.50;69.00;;;;;;4918759;29;19919;-58
2022/05/31 02:08:54;;;;;;;;;;;17.40;69.30;;;;;;4918885;29;19912;-59
2022/05/31 02:11:20;;;;;;;;;;;17.40;69.40;;;;;;4918581;29;20260;-59
2022/05/31 02:13:46;;;;;;;;;;;17.40;69.10;;;;;;4918914;29;19994;-61
2022/05/31 02:16:12;;;;;;;;;;;17.40;69.10;;;;;;4901626;29;19922;-59
2022/05/31 02:21:22;;;;;;;;;;;17.40;68.80;;;;;;4918913;29;19934;-60
2022/05/31 02:23:48;;;;;;;;;;;17.50;68.90;;;;;;4918728;29;19911;-59
2022/05/31 02:26:13;;;;;;;;;;;17.50;68.40;;;;;;4918562;29;19919;-58
2022/05/31 02:28:39;;;;;;;;;;;17.50;68.30;;;;;;4918511;29;19918;-60
2022/05/31 02:31:04;;;;;;;;;;;17.50;68.20;;;;;;4901269;29;20022;-59
2022/05/31 02:33:30;;;;;;;;;;;17.50;68.00;;;;;;4919655;29;20298;-59
2022/05/31 02:35:55;;;;;;;;;;;17.50;68.00;;;;;;4918525;29;19915;-60
2022/05/31 02:38:21;;;;;;;;;;;17.50;67.80;;;;;;4918457;29;19930;-58
2022/05/31 02:40:46;;;;;;;;;;;17.50;67.50;;;;;;4918250;29;19919;-58
2022/05/31 02:43:12;;;;;;;;;;;17.50;67.40;;;;;;4918190;29;19971;-59
2022/05/31 02:45:38;;;;;;;;;;;17.50;67.40;;;;;;4917982;29;19919;-58
2022/05/31 02:48:03;;;;;;;;;;;17.60;67.30;;;;;;4918405;29;20347;-58
2022/05/31 02:50:29;;;;;;;;;;;17.60;66.90;;;;;;4917997;29;20305;-58
2022/05/31 02:52:55;;;;;;;;;;;17.60;67.10;;;;;;4917770;29;19954;-58
2022/05/31 02:55:22;;;;;;;;;;;17.60;67.00;;;;;;4917133;29;20398;-58
2022/05/31 02:57:48;;;;;;;;;;;17.60;66.90;;;;;;4918135;29;19911;-58
2022/05/31 03:00:14;;;;;;;;;;;17.60;67.30;;;;;;4917762;29;19915;-57
2022/05/31 03:02:40;;;;;;;;;;;17.60;67.20;;;;;;4917979;29;19919;-58
2022/05/31 03:05:06;;;;;;;;;;;17.60;67.20;;;;;;4917765;29;19955;-61
2022/05/31 03:07:32;;;;;;;;;;;17.60;67.30;;;;;;4917973;29;19930;-58
2022/05/31 03:09:57;;;;;;;;;;;17.70;67.20;;;;;;4917801;29;20396;-61
2022/05/31 03:12:24;;;;;;;;;;;17.70;67.40;;;;;;4917546;29;19918;-58
2022/05/31 03:14:52;;;;;;;;;;;17.60;67.10;;;;;;4917610;29;19977;-60
2022/05/31 03:17:20;;;;;;;;;;;17.70;67.30;;;;;;4900675;29;19911;-58
2022/05/31 03:19:48;;;;;;;;;;;17.70;67.30;;;;;;4917973;29;19911;-57
2022/05/31 03:22:16;;;;;;;;;;;17.70;67.30;;;;;;4917455;29;19918;-58
2022/05/31 03:24:45;;;;;;;;;;;17.70;67.30;;;;;;4917716;29;19915;-60
2022/05/31 03:27:12;;;;;;;;;;;17.80;67.40;;;;;;4917552;29;20387;-60
2022/05/31 03:29:39;;;;;;;;;;;17.70;67.50;;;;;;4917409;29;20424;-59
2022/05/31 03:32:05;;;;;;;;;;;17.80;67.30;;;;;;4917260;29;19919;-59
2022/05/31 03:34:32;;;;;;;;;;;17.80;67.20;;;;;;4917423;29;19930;-59
2022/05/31 03:36:58;;;;;;;;;;;17.80;67.10;;;;;;4917656;29;19915;-59
2022/05/31 03:39:23;;;;;;;;;;;17.80;66.90;;;;;;4917306;29;19918;-58
2022/05/31 03:41:49;;;;;;;;;;;17.80;67.40;;;;;;4917110;29;19915;-60
2022/05/31 03:44:14;;;;;;;;;;;17.80;67.20;;;;;;4917935;29;19911;-67
2022/05/31 03:46:40;;;;;;;;;;;17.80;67.00;;;;;;4917950;29;19926;-67
2022/05/31 03:49:06;;;;;;;;;;;17.80;67.10;;;;;;4916152;29;19939;-66
2022/05/31 03:51:31;;;;;;;;;;;17.70;67.10;;;;;;4917685;29;19919;-63
2022/05/31 03:53:57;;;;;;;;;;;17.70;67.30;;;;;;4917493;29;20411;-65
2022/05/31 03:56:23;;;;;;;;;;;17.70;67.60;;;;;;4917272;29;20356;-67
2022/05/31 03:58:49;;;;;;;;;;;17.70;67.80;;;;;;4917212;29;20276;-66
2022/05/31 04:01:14;;;;;;;;;;;17.70;68.30;;;;;;4917228;29;19918;-65
2022/05/31 04:03:41;;;;;;;;;;;17.70;68.30;;;;;;4917478;29;20387;-65
2022/05/31 04:06:07;;;;;;;;;;;17.70;68.00;;;;;;4917146;29;19919;-64
2022/05/31 04:08:33;;;;;;;;;;;17.70;68.30;;;;;;4916996;29;20280;-61
2022/05/31 04:10:59;;;;;;;;;;;17.70;68.30;;;;;;4916925;29;19911;-66
2022/05/31 04:13:25;;;;;;;;;;;17.70;68.80;;;;;;4917339;29;19911;-60
2022/05/31 04:16:01;;;;;;;;;;;17.70;68.90;;;;;;4917307;29;19915;-59
2022/05/31 04:18:27;;;;;;;;;;;17.80;69.20;;;;;;4917066;29;19959;-59
2022/05/31 04:20:58;;;;;;;;;;;17.80;69.50;;;;;;4916980;29;20324;-61
2022/05/31 04:26:08;;;;;;;;;;;17.80;69.70;;;;;;4920550;29;19927;-61
2022/05/31 04:28:33;;;;;;;;;;;17.80;69.90;;;;;;4903494;29;19911;-61
2022/05/31 04:30:59;;;;;;;;;;;17.90;70.00;;;;;;4920698;29;20312;-66
2022/05/31 04:33:24;;;;;;;;;;;17.90;70.50;;;;;;4920470;29;19926;-67
2022/05/31 04:36:00;;;;;;;;;;;17.90;70.40;;;;;;4920482;29;19915;-58
2022/05/31 04:38:25;;;;;;;;;;;17.90;70.50;;;;;;4920559;29;19911;-65
2022/05/31 04:40:51;;;;;;;;;;;18.00;70.50;;;;;;4920466;29;19911;-67
2022/05/31 04:43:17;;;;;;;;;;;18.00;70.70;;;;;;4920169;29;19911;-68
2022/05/31 04:45:42;;;;;;;;;;;18.00;71.20;;;;;;4920348;29;19971;-65
2022/05/31 04:48:08;;;;;;;;;;;18.00;71.40;;;;;;4920375;29;19911;-59
2022/05/31 04:50:34;;;;;;;;;;;18.00;71.60;;;;;;4920216;29;19911;-66
2022/05/31 04:53:00;;;;;;;;;;;18.10;71.80;;;;;;4920206;29;20280;-63
2022/05/31 04:55:28;;;;;;;;;;;18.00;71.90;;;;;;4919959;29;19912;-59
2022/05/31 04:57:53;;;;;;;;;;;18.10;71.80;;;;;;4920093;29;19943;-59
2022/05/31 05:00:19;;;;;;;;;;;18.10;71.90;;;;;;4920169;29;19918;-60
2022/05/31 05:02:45;;;;;;;;;;;18.10;71.60;;;;;;4919736;29;20005;-59
2022/05/31 05:05:11;;;;;;;;;;;18.10;71.80;;;;;;4919759;29;20395;-59
2022/05/31 05:07:36;;;;;;;;;;;18.20;71.70;;;;;;4919980;29;19946;-60
2022/05/31 05:10:04;;;;;;;;;;;18.10;71.50;;;;;;4920031;29;20275;-59
2022/05/31 05:12:30;;;;;;;;;;;18.20;71.50;;;;;;4919876;29;19958;-58
2022/05/31 05:14:55;;;;;;;;;;;18.20;71.60;;;;;;4919817;29;20423;-59
2022/05/31 05:17:22;;;;;;;;;;;18.20;71.70;;;;;;4923524;29;19922;-58
2022/05/31 05:19:48;;;;;;;;;;;18.30;71.70;;;;;;4921632;29;19911;-56
2022/05/31 05:22:13;;;;;;;;;;;18.30;71.40;;;;;;4919867;29;19918;-59
2022/05/31 05:24:39;;;;;;;;;;;18.30;71.30;;;;;;4919551;29;20332;-56
2022/05/31 05:27:04;;;;;;;;;;;18.40;70.90;;;;;;4919831;29;20295;-57
2022/05/31 05:32:14;;;;;;;;;;;18.40;71.60;;;;;;4919262;29;19918;-57
2022/05/31 05:34:40;;;;;;;;;;;18.60;71.00;;;;;;4919102;29;19923;-59
2022/05/31 05:37:06;;;;;;;;;;;18.70;70.70;;;;;;4919739;29;20319;-55
2022/05/31 05:39:31;;;;;;;;;;;18.80;70.40;;;;;;4919061;29;19985;-55
2022/05/31 05:41:57;;;;;;;;;;;19.00;70.30;;;;;;4919245;29;19918;-56
2022/05/31 05:44:24;;;;;;;;;;;19.10;69.50;;;;;;4919481;29;19939;-58
2022/05/31 05:46:50;;;;;;;;;;;19.30;69.00;;;;;;4918987;29;19926;-58
2022/05/31 05:49:16;;;;;;;;;;;19.60;68.10;;;;;;4919151;29;19911;-60
2022/05/31 05:51:41;;;;;;;;;;;19.80;67.30;;;;;;4918924;29;20271;-59
2022/05/31 05:54:07;;;;;;;;;;;20.00;66.70;;;;;;4919227;29;20268;-61
2022/05/31 05:56:32;;;;;;;;;;;20.10;66.10;;;;;;4919149;29;19982;-59
2022/05/31 05:58:58;;;;;;;;;;;20.40;65.70;;;;;;4919113;29;19918;-58
2022/05/31 06:01:23;;;;;;;;;;;20.50;64.80;;;;;;4918962;29;19929;-60
2022/05/31 06:03:56;;;;;;;;;;;20.70;64.10;;;;;;4918793;29;20005;-60
2022/05/31 06:06:22;;;;;;;;;;;20.90;63.40;;;;;;4918951;29;19958;-60
2022/05/31 06:08:51;;;;;;;;;;;21.10;64.10;;;;;;4918906;29;19915;-63
2022/05/31 06:11:18;;;;;;;;;;;21.40;62.10;;;;;;4918164;29;20288;-62
2022/05/31 06:13:49;;;;;;;;;;;21.70;61.00;;;;;;4918514;29;19915;-62
2022/05/31 06:16:17;;;;;;;;;;;22.00;60.30;;;;;;4918681;29;19915;-61
2022/05/31 06:18:55;;;;;;;;;;;22.30;59.30;;;;;;4918558;29;20030;-60
2022/05/31 06:21:21;;;;;;;;;;;22.30;58.90;;;;;;4918522;29;19997;-61
2022/05/31 06:23:49;;;;;;;;;;;22.40;58.60;;;;;;4918382;29;19994;-61
2022/05/31 06:26:16;;;;;;;;;;;22.60;58.40;;;;;;4918455;29;19925;-62
2022/05/31 06:28:43;;;;;;;;;;;22.90;57.80;;;;;;4918326;29;20336;-59
2022/05/31 06:31:08;;;;;;;;;;;23.20;57.20;;;;;;4918046;29;19911;-60
2022/05/31 06:33:34;;;;;;;;;;;23.40;56.90;;;;;;4918285;29;19923;-65
2022/05/31 06:36:01;;;;;;;;;;;23.60;56.80;;;;;;4918320;29;20272;-60
2022/05/31 06:38:27;;;;;;;;;;;23.70;56.30;;;;;;4918410;29;19999;-60
2022/05/31 06:40:52;;;;;;;;;;;23.90;56.10;;;;;;4917962;29;20352;-60
2022/05/31 06:43:18;;;;;;;;;;;24.10;55.90;;;;;;4917775;29;20059;-58
2022/05/31 06:45:44;;;;;;;;;;;24.20;55.30;;;;;;4917190;29;19923;-60
2022/05/31 06:48:09;;;;;;;;;;;24.10;55.30;;;;;;4918048;29;20283;-62
2022/05/31 06:50:35;;;;;;;;;;;23.90;55.40;;;;;;4917915;29;19911;-62
2022/05/31 06:58:28;;;;;;;;;;;23.70;56.30;;;;;;4917624;29;19918;-57
2022/05/31 07:00:55;;;;;;;;;;;23.60;56.60;;;;;;4917888;29;19911;-56
2022/05/31 07:03:20;;;;;;;;;;;23.50;57.60;;;;;;4917946;29;19911;-60
2022/05/31 07:05:46;;;;;;;;;;;23.60;57.90;;;;;;4917751;29;19923;-57
2022/05/31 07:08:12;;;;;;;;;;;23.70;57.50;;;;;;4900429;29;19911;-57
2022/05/31 07:10:38;;;;;;;;;;;24.00;56.80;;;;;;4917589;29;19959;-58
2022/05/31 07:13:04;;;;;;;;;;;24.20;56.50;;;;;;4917596;29;19911;-58
2022/05/31 07:15:31;;;;;;;;;;;24.40;56.20;;;;;;4917743;29;19918;-58
2022/05/31 07:17:57;;;;;;;;;;;24.30;56.00;;;;;;4926561;29;19910;-59
2022/05/31 07:20:23;;;;;;;;;;;24.40;56.30;;;;;;4926525;29;19915;-59
2022/05/31 07:22:51;;;;;;;;;;;24.30;56.30;;;;;;4928313;29;20002;-62
2022/05/31 07:25:17;;;;;;;;;;;24.20;56.70;;;;;;4935831;29;19919;-59
2022/05/31 07:27:42;;;;;;;;;;;24.00;57.10;;;;;;4935891;29;19917;-59
2022/05/31 07:30:08;;;;;;;;;;;24.10;57.10;;;;;;4936012;29;19953;-60
2022/05/31 07:32:33;;;;;;;;;;;24.30;56.70;;;;;;4935728;29;19911;-60
2022/05/31 07:34:59;;;;;;;;;;;24.40;56.40;;;;;;4935616;29;19955;-59
2022/05/31 07:37:24;;;;;;;;;;;24.40;56.40;;;;;;4936341;29;19915;-60
2022/05/31 07:39:50;;;;;;;;;;;24.50;56.40;;;;;;4936515;29;20379;-59
2022/05/31 07:42:16;;;;;;;;;;;24.60;55.60;;;;;;4936203;29;19943;-65
2022/05/31 07:44:41;;;;;;;;;;;24.70;55.50;;;;;;4936395;29;19915;-63
2022/05/31 07:47:07;;;;;;;;;;;24.80;55.50;;;;;;4936216;29;19918;-61
2022/05/31 07:49:32;;;;;;;;;;;24.80;55.40;;;;;;4936292;29;19990;-60
2022/05/31 07:51:58;;;;;;;;;;;24.60;55.60;;;;;;4935849;29;19911;-61
2022/05/31 07:54:24;;;;;;;;;;;24.60;55.70;;;;;;4936424;29;20383;-62
2022/05/31 07:56:49;;;;;;;;;;;24.60;55.60;;;;;;4935666;29;19922;-62
2022/05/31 07:59:16;;;;;;;;;;;24.50;56.10;;;;;;4939916;29;20282;-56
2022/05/31 08:01:42;;;;;;;;;;;24.50;56.30;;;;;;4942948;29;19921;-55
2022/05/31 08:04:08;;;;;;;;;;;24.50;56.40;;;;;;4941180;29;20267;-56
2022/05/31 08:06:34;;;;;;;;;;;24.50;56.10;;;;;;4939959;29;19966;-55
2022/05/31 08:09:01;;;;;;;;;;;24.50;56.00;;;;;;4939800;29;20371;-55
2022/05/31 08:11:28;;;;;;;;;;;24.60;55.70;;;;;;4961468;23;19933;-62
2022/05/31 08:13:53;;;;;;;;;;;24.70;56.20;;;;;;4958986;29;19917;-63
2022/05/31 08:16:21;;;;;;;;;;;24.80;56.40;;;;;;4959059;29;19910;-64
2022/05/31 08:18:47;;;;;;;;;;;24.70;56.50;;;;;;4958898;29;20352;-63
2022/05/31 08:21:14;;;;;;;;;;;24.70;56.70;;;;;;4941473;29;19937;-62
2022/05/31 08:23:40;;;;;;;;;;;24.70;56.00;;;;;;4959167;29;20009;-62
2022/05/31 08:26:06;;;;;;;;;;;24.50;56.80;;;;;;4950081;29;20005;-60
2022/05/31 08:28:32;;;;;;;;;;;24.40;57.50;;;;;;4948183;29;19910;-59
2022/05/31 08:31:10;;;;;;;;;;;24.30;57.70;;;;;;4949552;29;19917;-60
2022/05/31 08:33:36;;;;;;;;;;;24.30;57.60;;;;;;4949218;29;19988;-63
2022/05/31 08:36:02;;;;;;;;;;;24.20;58.10;;;;;;4947138;29;19954;-65
2022/05/31 08:38:27;;;;;;;;;;;24.10;58.00;;;;;;4939554;29;20074;-60
2022/05/31 08:40:53;;;;;;;;;;;24.10;57.70;;;;;;4939524;29;20364;-67
2022/05/31 08:43:22;;;;;;;;;;;24.10;57.60;;;;;;4939403;29;19911;-65
2022/05/31 08:45:52;;;;;;;;;;;24.20;56.90;;;;;;4941909;29;20349;-62
2022/05/31 08:48:39;;;;;;;;;;;24.20;57.40;;;;;;4948725;29;19980;-64
2022/05/31 08:56:58;;;;;;;;;;;24.20;57.90;;;;;;4948813;29;19974;-65
2022/05/31 08:59:24;;;;;;;;;;;24.30;57.80;;;;;;4946308;29;19911;-66
2022/05/31 09:01:52;;;;;;;;;;;24.30;57.90;;;;;;4940912;29;20001;-60
2022/05/31 09:04:23;;;;;;;;;;;24.40;57.60;;;;;;4941882;29;19914;-64
2022/05/31 09:06:50;;;;;;;;;;;24.40;57.30;;;;;;4952298;29;19926;-66
2022/05/31 09:09:19;;;;;;;;;;;24.50;58.00;;;;;;4948172;29;19946;-69
2022/05/31 09:11:50;;;;;;;;;;;24.50;57.00;;;;;;4951782;29;19926;-66
2022/05/31 09:14:20;;;;;;;;;;;24.50;57.00;;;;;;4947725;29;19936;-67
2022/05/31 09:17:18;;;;;;;;;;;24.50;57.40;;;;;;4947665;29;19910;-67
2022/05/31 09:19:48;;;;;;;;;;;24.50;57.60;;;;;;4908918;29;20058;-61
2022/05/31 09:22:14;;;;;;;;;;;24.40;58.40;;;;;;4947890;29;19911;-68
2022/05/31 09:24:42;;;;;;;;;;;24.40;58.10;;;;;;4957713;29;19980;-64
2022/05/31 09:27:31;;;;;;;;;;;24.40;58.10;;;;;;4951849;29;19927;-66
2022/05/31 09:30:03;;;;;;;;;;;24.40;57.90;;;;;;4938036;29;19911;-61
2022/05/31 09:32:48;;;;;;;;;;;24.40;57.90;;;;;;4947279;29;20348;-58
2022/05/31 09:35:13;;;;;;;;;;;24.40;57.70;;;;;;4948768;29;19946;-58
2022/05/31 09:37:54;;;;;;;;;;;24.40;57.60;;;;;;4955068;29;19978;-62
2022/05/31 09:40:33;;;;;;;;;;;24.40;57.50;;;;;;4965229;29;19911;-59
2022/05/31 09:43:08;;;;;;;;;;;24.40;57.80;;;;;;4937761;29;19911;-64
2022/05/31 09:45:36;;;;;;;;;;;24.50;57.80;;;;;;4949310;29;20017;-62
2022/05/31 09:48:04;;;;;;;;;;;24.50;57.50;;;;;;4957233;28;19917;-61
2022/05/31 09:50:30;;;;;;;;;;;24.50;57.80;;;;;;4960586;29;20001;-61
2022/05/31 09:52:59;;;;;;;;;;;24.40;57.70;;;;;;4959197;29;19949;-62
2022/05/31 09:58:21;;;;;;;;;;;24.20;58.60;;;;;;4957941;29;20008;-61
2022/05/31 10:01:05;;;;;;;;;;;24.10;58.80;;;;;;4957429;29;19910;-62
2022/05/31 10:03:34;;;;;;;;;;;24.10;58.70;;;;;;4957443;28;19911;-64
2022/05/31 10:06:04;;;;;;;;;;;24.10;59.00;;;;;;4957251;29;20339;-60
2022/05/31 10:08:31;;;;;;;;;;;24.00;59.10;;;;;;4956919;29;19914;-62
2022/05/31 10:10:56;;;;;;;;;;;24.00;59.40;;;;;;4956772;29;19922;-60
2022/05/31 10:13:32;;;;;;;;;;;24.00;59.30;;;;;;4956847;29;20324;-61
2022/05/31 10:16:07;;;;;;;;;;;24.00;59.00;;;;;;4956688;28;19911;-62
2022/05/31 10:18:33;;;;;;;;;;;24.10;59.40;;;;;;4956990;29;19910;-63
2022/05/31 10:21:00;;;;;;;;;;;24.00;59.40;;;;;;4955853;28;20005;-62
2022/05/31 10:23:31;;;;;;;;;;;23.90;59.50;;;;;;4955327;29;19918;-62
2022/05/31 10:25:58;;;;;;;;;;;24.00;60.10;;;;;;4947338;29;20375;-59
2022/05/31 10:29:03;;;;;;;;;;;24.00;60.20;;;;;;4945769;29;19918;-60
2022/05/31 10:31:36;;;;;;;;;;;24.00;60.60;;;;;;4887831;29;19918;-59
2022/05/31 10:34:05;;;;;;;;;;;24.00;60.00;;;;;;4891538;29;20481;-68
2022/05/31 10:36:48;;;;;;;;;;;23.90;60.10;;;;;;4919484;29;19934;-77
2022/05/31 10:39:18;;;;;;;;;;;23.90;60.70;;;;;;4947279;29;19961;-65
2022/05/31 10:41:52;;;;;;;;;;;24.00;60.00;;;;;;5105997;27;20283;-63
2022/05/31 10:44:36;;;;;;;;;;;24.00;59.90;;;;;;5090740;28;20296;-63
2022/05/31 10:47:10;;;;;;;;;;;23.90;61.30;;;;;;5088687;28;19930;-65
2022/05/31 10:49:36;;;;;;;;;;;23.80;61.70;;;;;;5090622;28;19915;-66
2022/05/31 10:52:05;;;;;;;;;;;23.80;63.40;;;;;;5090469;28;20368;-71
2022/05/31 10:54:37;;;;;;;;;;;23.90;62.40;;;;;;5090508;28;19962;-68
2022/05/31 10:57:09;;;;;;;;;;;23.90;62.40;;;;;;5090747;28;19944;-72
2022/05/31 10:59:35;;;;;;;;;;;23.80;61.10;;;;;;5090286;28;19995;-74
2022/05/31 11:02:34;;;;;;;;;;;23.80;60.50;;;;;;5090575;28;20003;-74
2022/05/31 11:05:05;;;;;;;;;;;23.70;60.70;;;;;;5078172;28;19991;-72
2022/05/31 11:11:28;;;;;;;;;;;23.70;60.60;;;;;;5090253;28;19947;-68
2022/05/31 11:13:36;;;;;;;;;;;23.70;61.90;;;;;;5090119;28;19915;-68
2022/05/31 11:16:07;;;;;;;;;;;23.70;61.50;;;;;;5090220;28;20262;-68
2022/05/31 11:18:44;;;;;;;;;;;23.70;60.90;;;;;;5089950;28;20007;-71
2022/05/31 11:21:09;;;;;;;;;;;23.80;60.60;;;;;;5089836;28;19916;-65
2022/05/31 11:23:38;;;;;;;;;;;23.70;60.40;;;;;;5089820;28;19958;-69
2022/05/31 11:26:18;;;;;;;;;;;23.70;60.00;;;;;;5089912;28;19908;-67
2022/05/31 11:28:46;;;;;;;;;;;23.70;59.90;;;;;;5089599;28;19915;-72
2022/05/31 11:31:24;;;;;;;;;;;23.70;59.60;;;;;;5088844;28;19916;-69
2022/05/31 11:33:55;;;;;;;;;;;23.60;59.70;;;;;;5088985;28;20348;-66
2022/05/31 11:36:39;;;;;;;;;;;23.60;59.60;;;;;;5089320;28;19908;-71
2022/05/31 11:39:21;;;;;;;;;;;23.60;59.40;;;;;;5086546;28;20003;-72
2022/05/31 11:41:56;;;;;;;;;;;23.70;58.90;;;;;;5088221;28;19934;-73
2022/05/31 11:44:33;;;;;;;;;;;23.70;58.70;;;;;;5089440;28;20283;-69
2022/05/31 11:46:58;;;;;;;;;;;23.70;58.20;;;;;;5089561;28;19977;-74
2022/05/31 11:49:34;;;;;;;;;;;23.70;57.40;;;;;;5089102;28;20548;-67
2022/05/31 11:52:09;;;;;;;;;;;23.70;57.30;;;;;;5075306;28;19913;-72
2022/05/31 11:55:25;;;;;;;;;;;23.70;57.70;;;;;;5074821;28;19913;-67
2022/05/31 11:57:44;;;;;;;;;;;23.70;57.80;;;;;;5075066;28;19912;-75
2022/05/31 12:00:11;;;;;;;;;;;23.70;56.80;;;;;;5072085;28;19921;-73
2022/05/31 12:02:45;;;;;;;;;;;23.70;56.90;;;;;;5075210;28;20276;-70
2022/05/31 12:05:16;;;;;;;;;;;23.70;56.40;;;;;;5075498;28;19909;-74
2022/05/31 12:07:56;;;;;;;;;;;23.60;56.90;;;;;;5075170;28;19920;-73
2022/05/31 12:10:26;;;;;;;;;;;23.60;57.10;;;;;;5072834;28;19909;-74
2022/05/31 12:12:52;;;;;;;;;;;23.60;57.00;;;;;;5074961;28;20002;-73
2022/05/31 12:15:21;;;;;;;;;;;23.60;57.80;;;;;;5075023;28;19920;-73
2022/05/31 12:18:09;;;;;;;;;;;23.50;57.80;;;;;;5075092;28;19913;-71
2022/05/31 12:20:35;;;;;;;;;;;23.60;57.50;;;;;;5071412;28;20365;-71
2022/05/31 12:23:05;;;;;;;;;;;23.60;57.30;;;;;;5074886;28;19963;-66
2022/05/31 12:25:33;;;;;;;;;;;23.60;57.30;;;;;;5075329;28;19954;-71
2022/05/31 12:28:05;;;;;;;;;;;23.70;57.00;;;;;;5075397;28;19957;-71
2022/05/31 12:30:34;;;;;;;;;;;23.70;56.70;;;;;;5061489;28;19908;-69
2022/05/31 12:32:59;;;;;;;;;;;23.70;56.50;;;;;;5074957;28;20361;-71
2022/05/31 12:35:31;;;;;;;;;;;23.60;56.60;;;;;;5074983;28;19909;-69
2022/05/31 12:37:56;;;;;;;;;;;23.60;56.70;;;;;;5075073;28;19915;-67
2022/05/31 12:40:45;;;;;;;;;;;23.60;56.20;;;;;;5074581;28;20007;-65
2022/05/31 12:43:13;;;;;;;;;;;23.60;56.50;;;;;;5074849;28;19934;-69
2022/05/31 12:45:43;;;;;;;;;;;23.60;56.60;;;;;;5074727;28;19915;-71
2022/05/31 12:48:09;;;;;;;;;;;23.60;56.60;;;;;;5074581;28;19908;-72
2022/05/31 12:50:47;;;;;;;;;;;23.70;56.60;;;;;;5074409;28;19916;-68
2022/05/31 12:53:23;;;;;;;;;;;23.70;56.30;;;;;;5074746;28;19912;-72
2022/05/31 12:55:55;;;;;;;;;;;23.70;56.10;;;;;;5074275;28;19912;-68
2022/05/31 12:58:27;;;;;;;;;;;23.80;55.40;;;;;;5074660;28;19931;-64
2022/05/31 13:00:57;;;;;;;;;;;23.70;55.70;;;;;;5074537;28;20336;-69
2022/05/31 13:03:34;;;;;;;;;;;23.60;56.00;;;;;;5074067;28;19938;-70
2022/05/31 13:06:03;;;;;;;;;;;23.70;56.30;;;;;;5073450;28;19912;-68
2022/05/31 13:08:47;;;;;;;;;;;23.70;56.40;;;;;;5069935;28;19908;-72
2022/05/31 13:19:56;;;;;;;;;;;23.80;55.50;;;;;;5074129;28;20381;-68
2022/05/31 13:22:22;;;;;;;;;;;23.70;55.20;;;;;;5081700;28;19976;-65
2022/05/31 13:24:48;;;;;;;;;;;23.80;54.90;;;;;;5091388;28;19909;-64
2022/05/31 13:27:16;;;;;;;;;;;23.80;54.80;;;;;;5092048;28;19908;-65
2022/05/31 13:29:42;;;;;;;;;;;23.80;54.90;;;;;;5091272;28;19923;-66
2022/05/31 13:32:10;;;;;;;;;;;23.70;55.00;;;;;;5091617;28;19909;-68
2022/05/31 13:34:37;;;;;;;;;;;23.70;54.60;;;;;;5078474;28;19990;-70
2022/05/31 13:37:04;;;;;;;;;;;23.70;54.90;;;;;;5073127;28;19975;-72
2022/05/31 13:39:38;;;;;;;;;;;23.80;54.70;;;;;;5073831;28;19940;-75
2022/05/31 13:42:04;;;;;;;;;;;23.80;55.00;;;;;;5073186;28;20356;-64
2022/05/31 13:44:33;;;;;;;;;;;23.80;54.50;;;;;;5073038;28;19918;-73
2022/05/31 13:47:00;;;;;;;;;;;23.80;55.00;;;;;;5073372;28;19909;-62
2022/05/31 13:49:27;;;;;;;;;;;23.80;54.90;;;;;;5073453;28;20398;-61
2022/05/31 13:51:57;;;;;;;;;;;23.90;54.60;;;;;;5073160;28;19944;-60
2022/05/31 13:54:26;;;;;;;;;;;23.90;54.50;;;;;;5073276;28;19912;-62
2022/05/31 13:56:55;;;;;;;;;;;23.80;54.30;;;;;;5073084;28;20005;-76
2022/05/31 13:59:29;;;;;;;;;;;23.80;54.70;;;;;;5072777;28;19909;-68
2022/05/31 14:01:55;;;;;;;;;;;23.80;55.20;;;;;;5072550;28;20395;-77
2022/05/31 14:04:22;;;;;;;;;;;23.80;55.00;;;;;;5072062;28;19912;-71
2022/05/31 14:06:49;;;;;;;;;;;23.80;54.10;;;;;;5072217;28;19912;-73
2022/05/31 14:09:17;;;;;;;;;;;23.80;54.60;;;;;;5068016;28;20322;-69
2022/05/31 14:11:45;;;;;;;;;;;23.80;54.20;;;;;;5071953;28;19917;-66
2022/05/31 14:14:26;;;;;;;;;;;23.90;54.50;;;;;;5071746;28;19909;-68
2022/05/31 14:16:53;;;;;;;;;;;23.90;54.50;;;;;;5072020;28;19908;-66
2022/05/31 14:19:21;;;;;;;;;;;23.80;54.70;;;;;;5071998;28;20364;-73
2022/05/31 14:21:48;;;;;;;;;;;23.90;54.60;;;;;;5071136;28;19920;-69
2022/05/31 14:24:16;;;;;;;;;;;23.90;54.40;;;;;;5071823;28;19916;-71
2022/05/31 14:26:42;;;;;;;;;;;23.90;54.60;;;;;;5071752;28;19919;-75
2022/05/31 14:29:10;;;;;;;;;;;23.90;54.20;;;;;;5071736;28;19915;-65
2022/05/31 14:31:37;;;;;;;;;;;23.90;54.20;;;;;;5071119;28;19935;-69
2022/05/31 14:34:04;;;;;;;;;;;23.90;54.50;;;;;;5071690;28;19908;-66
2022/05/31 14:36:34;;;;;;;;;;;24.00;54.40;;;;;;5071540;28;19912;-74
2022/05/31 14:39:01;;;;;;;;;;;23.90;54.60;;;;;;5071754;28;19934;-70
2022/05/31 14:41:26;;;;;;;;;;;23.90;54.80;;;;;;5074244;28;19968;-68
2022/05/31 14:43:53;;;;;;;;;;;23.90;54.70;;;;;;5076507;28;19919;-71
2022/05/31 14:46:36;;;;;;;;;;;24.00;54.60;;;;;;5074851;28;19908;-72
2022/05/31 14:49:06;;;;;;;;;;;23.90;54.60;;;;;;5077704;28;19908;-70
2022/05/31 14:51:37;;;;;;;;;;;23.90;54.40;;;;;;5080061;28;19913;-66
2022/05/31 14:54:03;;;;;;;;;;;23.90;54.00;;;;;;5079566;28;19936;-70
2022/05/31 14:56:39;;;;;;;;;;;24.00;54.00;;;;;;5071027;28;20364;-70
2022/05/31 14:59:17;;;;;;;;;;;23.90;54.00;;;;;;5071273;28;19912;-74
2022/05/31 15:01:45;;;;;;;;;;;23.80;54.10;;;;;;5069755;28;19921;-70
2022/05/31 15:04:12;;;;;;;;;;;23.90;53.60;;;;;;5072349;28;20007;-70
2022/05/31 15:06:40;;;;;;;;;;;23.80;53.50;;;;;;5071250;28;19923;-71
2022/05/31 15:09:13;;;;;;;;;;;23.80;53.70;;;;;;5067209;28;19909;-70
2022/05/31 15:19:52;;;;;;;;;;;23.80;53.80;;;;;;5071216;28;19920;-75
2022/05/31 15:22:19;;;;;;;;;;;23.90;54.10;;;;;;5070749;28;19917;-69
2022/05/31 15:24:47;;;;;;;;;;;23.80;53.90;;;;;;5068160;28;19916;-70
2022/05/31 15:27:18;;;;;;;;;;;23.80;53.60;;;;;;5068426;28;19935;-70
2022/05/31 15:29:44;;;;;;;;;;;23.80;53.20;;;;;;5076257;28;20027;-68
2022/05/31 15:32:10;;;;;;;;;;;23.80;53.00;;;;;;5075000;28;20304;-69
2022/05/31 15:34:35;;;;;;;;;;;23.80;53.50;;;;;;5074927;28;19912;-71
2022/05/31 15:37:02;;;;;;;;;;;23.80;53.70;;;;;;5075731;28;19919;-73
2022/05/31 15:39:28;;;;;;;;;;;23.80;53.60;;;;;;5076320;28;19916;-71
2022/05/31 15:41:54;;;;;;;;;;;23.80;54.00;;;;;;5076354;28;20388;-75
2022/05/31 15:44:19;;;;;;;;;;;23.80;54.00;;;;;;5076583;28;19909;-73
2022/05/31 15:46:45;;;;;;;;;;;23.80;54.20;;;;;;5076061;28;20355;-72
2022/05/31 15:49:12;;;;;;;;;;;23.80;54.20;;;;;;5076319;28;19958;-68
2022/05/31 15:51:42;;;;;;;;;;;23.80;54.50;;;;;;5075658;28;19923;-73
2022/05/31 15:54:18;;;;;;;;;;;23.80;54.60;;;;;;5074634;28;19999;-76
2022/05/31 15:56:45;;;;;;;;;;;23.80;54.80;;;;;;5078407;28;19923;-68
2022/05/31 15:59:14;;;;;;;;;;;23.80;54.80;;;;;;5075334;28;19914;-71
2022/05/31 16:01:39;;;;;;;;;;;23.70;54.70;;;;;;5089874;28;19941;-72
2022/05/31 16:04:05;;;;;;;;;;;23.70;55.00;;;;;;5096643;28;20249;-71
2022/05/31 16:06:31;;;;;;;;;;;23.70;55.10;;;;;;5078863;28;19999;-72